41CA weather

Silver Creek Ranch Airport
Forest Glen, California, United States

Public forecast

Using degrees Fahrenheit for public forecast. Weather courtesy of forecast.io.

Closest aviation weather report (METAR) to Silver Creek Ranch Airport

Closest report is Lonnie Pool Field Weaverville Airport, 29.8 nm (55.3 km) NNE. Retrieved 2019/10/19 16:35 UTC (0 seconds ago):

KO54 191635Z AUTO 03003KT 10SM BKN009 OVC014 10/08 A3004 RMK AO1

Closest aviation forecast (TAF) to Silver Creek Ranch Airport

Closest forecast is Redding Municipal Airport, 45.4 nm (84.1 km) ENE. Retrieved 2019/10/19 12:30 UTC (4 hours ago):

TAF KRDD 191127Z 1912/2012 VRB04KT P6SM VCSH BKN050 FM191400 VRB03KT P6SM -SHRA OVC050 FM191800 19008KT P6SM SCT050 SCT100 OVC250 FM200000 30005KT P6SM BKN250